»·PEaware :: N6870P KAJO-KVCV

N6870P :: KAJO-KVCV

FLIGHT INFORMATION

Flight Status: Arrived
Operator: Privately registered:
United States
More flights under this callsign
Pilot: Larry J. (31147)
Aircraft: PIPER PA-24 COMMANCHE
(PA24)
More flights by this aircraft type
Origin: KAJO Corona Mun
United States
Destination: KVCV Socal Logistics
United States
More flights between these airports :: More routes between these airports
Route: PDZ V442 APLES
File this flight plan on PilotEdge
Remarks: I-11 rating
Altitude:
(Current/Filed)
9,000ft
Speed:
(Current/Filed)
165kts
Departed: 30-Oct-20 07:55 AM
Arrived: 30-Oct-20 09:33 AM
Distance/Time
Traveled:
43nm/1:38
Distance/Time
To Go:
Arrived

Flight Plot

Page will automatically refresh every two minutes.


Map Options




Map Legend


Flown Route
Filed Route
Departure Airport
Arrival Airport
Navaid (VOR, NDB)
Fix

Horizontal Profiles

Position Reports

Time Latitude Longitude Heading Altitude Ground
Speed
30-Oct-20 07:39 33.896989 -117.607296 179 535ft 0kts
30-Oct-20 07:40 33.896989 -117.607296 179 535ft 0kts
30-Oct-20 07:41 33.896989 -117.607296 179 535ft 0kts
30-Oct-20 07:42 33.896989 -117.607296 179 535ft 0kts
30-Oct-20 07:43 33.896989 -117.607296 179 535ft 0kts
30-Oct-20 07:44 33.896989 -117.607296 179 535ft 0kts
30-Oct-20 07:45 33.896989 -117.607296 179 535ft 0kts
30-Oct-20 07:46 33.896989 -117.607296 179 535ft 0kts
30-Oct-20 07:47 33.896989 -117.607296 179 535ft 0kts
30-Oct-20 07:48 33.896989 -117.607296 179 535ft 0kts
30-Oct-20 07:49 33.896989 -117.607296 179 535ft 0kts
30-Oct-20 07:50 33.896993 -117.607589 356 535ft 0kts
30-Oct-20 07:51 33.896993 -117.607589 356 535ft 0kts
30-Oct-20 07:52 33.896993 -117.607589 356 535ft 0kts
30-Oct-20 07:53 33.897302 -117.607373 4 535ft 3kts
30-Oct-20 07:54 33.897452 -117.591257 108 711ft 104kts
30-Oct-20 07:55 33.888153 -117.552665 62 1338ft 126kts
30-Oct-20 07:56 33.913461 -117.530124 16 2602ft 109kts
30-Oct-20 07:57 33.936345 -117.512742 57 3807ft 120kts
30-Oct-20 07:58 33.968579 -117.494103 319 4426ft 134kts
30-Oct-20 07:59 33.954573 -117.523197 200 4818ft 135kts
30-Oct-20 08:01 33.919875 -117.525910 167 5446ft 115kts
30-Oct-20 08:02 33.911165 -117.550702 300 5809ft 123kts
30-Oct-20 08:03 33.941216 -117.543630 40 5815ft 133kts
30-Oct-20 08:04 33.968129 -117.512366 68 5789ft 130kts
30-Oct-20 08:05 33.947312 -117.500924 223 5820ft 126kts
30-Oct-20 08:06 33.920813 -117.529429 220 6042ft 129kts
30-Oct-20 08:07 33.926833 -117.555810 15 7503ft 119kts
30-Oct-20 08:08 33.951332 -117.531393 41 8805ft 125kts
30-Oct-20 08:09 33.969015 -117.498578 143 8728ft 129kts
30-Oct-20 08:21 33.896989 -117.607296 179 535ft 0kts
30-Oct-20 08:21 33.897075 -117.607537 356 535ft 0kts
30-Oct-20 08:23 33.897075 -117.607537 356 535ft 0kts
30-Oct-20 08:23 33.897075 -117.607537 356 535ft 0kts
30-Oct-20 08:25 33.897075 -117.607537 356 535ft 0kts
30-Oct-20 08:25 33.897075 -117.607537 356 535ft 0kts
30-Oct-20 08:26 33.897075 -117.607537 356 535ft 0kts
30-Oct-20 08:27 33.897076 -117.607537 354 535ft 0kts
30-Oct-20 08:28 33.897010 -117.590836 84 708ft 97kts
30-Oct-20 08:29 33.906206 -117.560153 65 2286ft 100kts
30-Oct-20 08:30 33.920802 -117.532832 46 3889ft 99kts
30-Oct-20 08:31 33.940590 -117.508495 41 5004ft 121kts
30-Oct-20 08:32 33.970882 -117.499697 306 4999ft 129kts
30-Oct-20 08:33 33.951861 -117.525416 192 5000ft 129kts
30-Oct-20 08:34 33.916111 -117.530080 192 4998ft 129kts
30-Oct-20 08:35 33.925220 -117.555967 16 5001ft 128kts
30-Oct-20 08:36 33.953564 -117.530506 39 4999ft 126kts
30-Oct-20 08:37 33.962846 -117.498028 147 4997ft 124kts
30-Oct-20 08:38 33.935181 -117.514878 221 5256ft 106kts
30-Oct-20 08:39 33.916877 -117.544391 287 6267ft 122kts
30-Oct-20 08:40 33.944521 -117.544948 46 7565ft 113kts
30-Oct-20 08:41 33.952738 -117.511983 40 8928ft 106kts
30-Oct-20 08:42 33.988002 -117.488243 25 9006ft 171kts
30-Oct-20 08:43 34.032531 -117.461599 26 9000ft 181kts
30-Oct-20 08:44 34.077322 -117.434660 25 9000ft 180kts
30-Oct-20 08:45 34.122327 -117.407569 26 9000ft 181kts
30-Oct-20 08:46 34.167506 -117.380352 26 8999ft 181kts
30-Oct-20 08:47 34.212885 -117.353035 25 8999ft 181kts
30-Oct-20 08:48 34.258038 -117.325744 26 8999ft 181kts
30-Oct-20 08:49 34.303218 -117.298398 26 8999ft 181kts
30-Oct-20 08:50 34.349087 -117.270619 26 8816ft 185kts
30-Oct-20 08:51 34.394710 -117.242960 26 8816ft 182kts
30-Oct-20 08:52 34.439613 -117.215792 26 8817ft 182kts
30-Oct-20 08:53 34.484711 -117.188332 26 8816ft 181kts
30-Oct-20 08:54 34.530785 -117.163969 10 8818ft 181kts
30-Oct-20 08:55 34.581306 -117.157502 23 8074ft 172kts
30-Oct-20 08:56 34.618085 -117.141734 5 6715ft 142kts
30-Oct-20 08:57 34.652116 -117.146309 340 6460ft 124kts
30-Oct-20 08:58 34.682783 -117.163668 335 6416ft 119kts
30-Oct-20 08:59 34.711639 -117.182762 331 6416ft 118kts
30-Oct-20 09:00 34.735885 -117.205561 308 6414ft 104kts
30-Oct-20 09:01 34.751412 -117.234328 303 6416ft 100kts
30-Oct-20 09:02 34.766016 -117.263278 299 6416ft 100kts
30-Oct-20 09:03 34.779171 -117.294300 294 6179ft 119kts
30-Oct-20 09:04 34.794277 -117.334614 294 5099ft 130kts
30-Oct-20 09:05 34.789704 -117.356065 167 4918ft 96kts
30-Oct-20 09:06 34.764978 -117.367086 182 4400ft 110kts
30-Oct-20 09:07 34.730609 -117.375639 193 3461ft 128kts
30-Oct-20 09:08 34.697137 -117.384949 189 3047ft 136kts
30-Oct-20 09:09 34.658268 -117.388429 176 3201ft 132kts
30-Oct-20 09:10 34.625380 -117.386476 181 3181ft 117kts
30-Oct-20 09:11 34.590508 -117.386720 180 3518ft 122kts
30-Oct-20 09:12 34.558061 -117.401736 223 3498ft 133kts
30-Oct-20 09:13 34.567592 -117.430428 321 4672ft 109kts
30-Oct-20 09:14 34.587297 -117.457014 305 5773ft 110kts
30-Oct-20 09:15 34.608157 -117.494458 300 5795ft 147kts
30-Oct-20 09:16 34.620630 -117.534171 281 5795ft 112kts
30-Oct-20 09:17 34.630752 -117.568137 331 5808ft 108kts
30-Oct-20 09:18 34.656238 -117.569143 59 5802ft 109kts
30-Oct-20 09:19 34.664873 -117.550400 248 4178ft 169kts
30-Oct-20 09:20 34.653802 -117.589871 192 3628ft 133kts
30-Oct-20 09:21 34.621156 -117.596879 178 3698ft 115kts
30-Oct-20 09:22 34.599189 -117.582835 87 3702ft 113kts
30-Oct-20 09:23 34.602058 -117.544540 67 3700ft 114kts
30-Oct-20 09:24 34.604620 -117.507053 96 3698ft 114kts
30-Oct-20 09:25 34.601317 -117.468684 96 3698ft 113kts
30-Oct-20 09:26 34.612071 -117.437575 44 3698ft 105kts
30-Oct-20 09:27 34.632180 -117.414001 44 3700ft 92kts
30-Oct-20 09:28 34.651203 -117.390807 61 3679ft 104kts
30-Oct-20 09:29 34.637800 -117.361274 134 3214ft 112kts
30-Oct-20 09:30 34.610677 -117.356076 201 3244ft 105kts
30-Oct-20 09:31 34.594200 -117.374100 220 2858ft 44kts
30-Oct-20 09:32 34.590348 -117.378249 182 2865ft 13kts
30-Oct-20 09:33 34.587801 -117.375382 169 2868ft 15kts

Navigation Log

Ident Type
Flight plan parsing failed, navigation log unavailable